METAR Data
IDs: Format: Raw Decoded Include TAF

Data at: 1223 UTC 16 Jul 2019

KDNA 161215Z AUTO 14007KT 10SM CLR 27/07 A3002 RMK AO2
KDNA 161155Z AUTO 13009KT 10SM CLR 27/07 A3001 RMK AO2
KDNA 161135Z AUTO 14008KT 10SM CLR 27/07 A3001 RMK AO2
KDNA 161115Z AUTO 14008KT 10SM CLR 28/07 A3001 RMK AO2
KDNA 161055Z AUTO 14006KT 10SM CLR 28/06 A3001 RMK AO2
KDNA 161035Z AUTO 14008KT 10SM CLR 28/06 A3000 RMK AO2
KDNA 161015Z AUTO 14009KT 10SM CLR 28/05 A3000 RMK AO2
KDNA 160955Z AUTO 13009KT 10SM CLR 29/05 A3000 RMK AO2
KDNA 160935Z AUTO 14007KT 10SM CLR 29/04 A3000 RMK AO2
KDNA 160915Z AUTO 14007KT 10SM CLR 29/04 A3000 RMK AO2
KDNA 160855Z AUTO 13007KT 10SM CLR 28/03 A3001 RMK AO2
KDNA 160835Z AUTO 12008KT 10SM CLR 28/03 A3001 RMK AO2
KDNA 160815Z AUTO 12005KT 10SM CLR 28/04 A3002 RMK AO2
KDNA 160755Z AUTO 10006KT 10SM CLR 29/05 A3002 RMK AO2
KDNA 160735Z AUTO 05007KT 10SM CLR 28/06 A3003 RMK AO2
KDNA 160715Z AUTO 00000KT 10SM CLR 29/04 A3003 RMK AO2
KDNA 160655Z AUTO 00000KT 10SM CLR 30/04 A3004 RMK AO2
KDNA 160635Z AUTO 06005KT 10SM CLR 31/04 A3003 RMK AO2
KDNA 160615Z AUTO 05006G12KT 10SM CLR 31/04 A3002 RMK AO2
KDNA 160555Z AUTO 09005KT 10SM CLR 31/04 A3001 RMK AO2
KDNA 160535Z AUTO 12005KT 10SM CLR 30/06 A3001 RMK AO2
KDNA 160515Z AUTO 13006KT 10SM CLR 30/06 A3000 RMK AO2
KDNA 160455Z AUTO 17005KT 10SM CLR 32/06 A3000 RMK AO2
KDNA 160435Z AUTO 17006KT 10SM CLR 33/06 A3000 RMK AO2
KDNA 160415Z AUTO 16006KT 10SM CLR 33/06 A3000 RMK AO2
KDNA 160355Z AUTO 16007KT 10SM CLR 33/06 A3000 RMK AO2
KDNA 160335Z AUTO 17007KT 10SM CLR 33/06 A2999 RMK AO2
KDNA 160315Z AUTO 16006KT 10SM CLR 34/06 A2999 RMK AO2
KDNA 160255Z AUTO 16006KT 10SM CLR 34/06 A2998 RMK AO2
KDNA 160235Z AUTO 17005KT 10SM CLR 35/06 A2998 RMK AO2
KDNA 160215Z AUTO 16005KT 10SM CLR 35/05 A2997 RMK AO2
KDNA 160155Z AUTO 15005KT 10SM CLR 36/05 A2997 RMK AO2
KDNA 160135Z AUTO 15005KT 10SM CLR 37/05 A2997 RMK AO2
KDNA 160115Z AUTO 15003KT 10SM CLR 37/05 A2996 RMK AO2
KDNA 160055Z AUTO 15004KT 10SM CLR 37/05 A2997 RMK AO2
KDNA 160035Z AUTO 15005KT 10SM CLR 38/06 A2996 RMK AO2
KDNA 160015Z AUTO VRB04KT 10SM CLR 38/05 A2996 RMK AO2
KDNA 152355Z AUTO VRB04G10KT 10SM CLR 38/05 A2997 RMK AO2
KDNA 152335Z AUTO 13008KT 060V170 10SM CLR 38/06 A2997 RMK AO2
KDNA 152315Z AUTO VRB04G10KT 10SM CLR 38/06 A2997 RMK AO2
KDNA 152255Z AUTO 11007G12KT 090V150 10SM CLR 38/06 A2998 RMK AO2
KDNA 152235Z AUTO VRB03G10KT 10SM CLR 38/06 A2999 RMK AO2
KDNA 152215Z AUTO 00000G11KT 10SM CLR 38/06 A3000 RMK AO2
KDNA 152155Z AUTO VRB05KT 10SM CLR 38/06 A3000 RMK AO2
KDNA 152135Z AUTO VRB03G10KT 10SM CLR 37/06 A3001 RMK AO2
KDNA 152115Z AUTO 00000KT 10SM CLR 38/06 A3002 RMK AO2
KDNA 152055Z AUTO VRB04KT 10SM CLR 37/05 A3003 RMK AO2
KDNA 152035Z AUTO VRB04KT 10SM CLR 37/05 A3004 RMK AO2
KDNA 152015Z AUTO VRB05KT 10SM CLR 37/06 A3004 RMK AO2
KDNA 151955Z AUTO VRB05G12KT 10SM CLR 36/06 A3005 RMK AO2
KDNA 151935Z AUTO 23004KT 10SM CLR 36/06 A3006 RMK AO2
KDNA 151915Z AUTO 00000KT 10SM CLR 36/06 A3007 RMK AO2
KDNA 151855Z AUTO 00000KT 10SM CLR 35/06 A3007 RMK AO2
KDNA 151835Z AUTO 26005KT 10SM CLR 35/06 A3009 RMK AO2
KDNA 151815Z AUTO 00000KT 10SM CLR 35/07 A3009 RMK AO2
KDNA 151755Z AUTO 18007KT 150V230 10SM CLR 35/07 A3010 RMK AO2
KDNA 151735Z AUTO VRB04G10KT 10SM CLR 34/07 A3011 RMK AO2
KDNA 151715Z AUTO 00000KT 10SM CLR 34/07 A3011 RMK AO2
KDNA 151655Z AUTO 00000KT 10SM CLR 33/07 A3012 RMK AO2
KDNA 151635Z AUTO 16005KT 10SM CLR 33/07 A3012 RMK AO2
KDNA 151615Z AUTO 18005KT 10SM CLR 33/07 A3012 RMK AO2
KDNA 151555Z AUTO 13005KT 10SM CLR 32/08 A3012 RMK AO2
KDNA 151535Z AUTO VRB04KT 10SM CLR 31/08 A3013 RMK AO2
KDNA 151515Z AUTO 13005KT 10SM CLR 30/08 A3013 RMK AO2
KDNA 151455Z AUTO 10005KT 10SM FEW120 29/08 A3013 RMK AO2
KDNA 151435Z AUTO 11004KT 10SM CLR 29/09 A3013 RMK AO2
KDNA 151415Z AUTO 11006KT 10SM CLR 27/09 A3013 RMK AO2
KDNA 151355Z AUTO 00000KT 10SM CLR 25/09 A3013 RMK AO2
KDNA 151335Z AUTO 00000KT 10SM CLR 25/09 A3012 RMK AO2
KDNA 151315Z AUTO 16004KT 10SM CLR 25/09 A3012 RMK AO2
KDNA 151255Z AUTO 15005KT 10SM CLR 25/09 A3011 RMK AO2
KDNA 151235Z AUTO 15006KT 10SM CLR 25/08 A3010 RMK AO2
KDNA 151215Z AUTO 17005KT 10SM CLR 25/08 A3010 RMK AO2
KDNA 151155Z AUTO 14005KT 10SM CLR 26/08 A3009 RMK AO2
KDNA 151135Z AUTO 13007KT 10SM CLR 26/08 A3008 RMK AO2
KDNA 151115Z AUTO 12006KT 10SM CLR 26/08 A3008 RMK AO2
KDNA 151055Z AUTO 12006KT 10SM CLR 25/08 A3008 RMK AO2
KDNA 151035Z AUTO 12007KT 10SM CLR 26/08 A3007 RMK AO2
KDNA 151015Z AUTO 13007KT 10SM CLR 26/08 A3007 RMK AO2
KDNA 150955Z AUTO 13007KT 10SM CLR 26/08 A3007 RMK AO2
KDNA 150935Z AUTO 13006KT 10SM CLR 26/08 A3008 RMK AO2
KDNA 150915Z AUTO 14006KT 10SM CLR 27/08 A3008 RMK AO2
KDNA 150855Z AUTO 13006KT 10SM CLR 27/07 A3008 RMK AO2
KDNA 150835Z AUTO 13004KT 10SM CLR 26/07 A3009 RMK AO2
KDNA 150815Z AUTO 14005KT 10SM CLR 26/07 A3009 RMK AO2
KDNA 150755Z AUTO 13005KT 10SM CLR 27/07 A3009 RMK AO2
KDNA 150735Z AUTO 13006KT 10SM CLR 27/07 A3009 RMK AO2
KDNA 150715Z AUTO 14004KT 10SM CLR 28/07 A3010 RMK AO2
KDNA 150655Z AUTO 12004KT 10SM CLR 28/07 A3009 RMK AO2
KDNA 150635Z AUTO 11005KT 10SM CLR 29/07 A3009 RMK AO2
KDNA 150615Z AUTO 07003KT 10SM CLR 29/09 A3009 RMK AO2
KDNA 150555Z AUTO 34003KT 10SM CLR 28/09 A3009 RMK AO2
KDNA 150535Z AUTO 31004KT 10SM CLR 28/09 A3009 RMK AO2
KDNA 150515Z AUTO 00000KT 10SM CLR 28/09 A3009 RMK AO2
KDNA 150455Z AUTO 32003KT 10SM CLR 29/09 A3008 RMK AO2
KDNA 150435Z AUTO 33006KT 10SM CLR 29/09 A3008 RMK AO2
KDNA 150415Z AUTO 32003KT 10SM CLR 30/08 A3008 RMK AO2
KDNA 150355Z AUTO 01005KT 10SM FEW120 31/09 A3007 RMK AO2
KDNA 150335Z AUTO 00000KT 10SM FEW120 32/09 A3007 RMK AO2
KDNA 150315Z AUTO 00000KT 10SM FEW120 33/07 A3006 RMK AO2
KDNA 150255Z AUTO 06004KT 10SM CLR 33/09 A3005 RMK AO2
KDNA 150235Z AUTO 05003KT 10SM FEW120 34/05 A3004 RMK AO2
KDNA 150215Z AUTO 15005KT 10SM SCT120 34/05 A3004 RMK AO2
KDNA 150155Z AUTO 15004KT 10SM CLR 35/04 A3003 RMK AO2 LTG DSNT N AND NW
KDNA 150135Z AUTO 15005KT 10SM CLR 35/04 A3003 RMK AO2
KDNA 150115Z AUTO 14007KT 10SM CLR 36/04 A3003 RMK AO2
KDNA 150055Z AUTO 00000G10KT 10SM CLR 36/05 A3003 RMK AO2
KDNA 150035Z AUTO 13007G14KT 10SM CLR 37/05 A3003 RMK AO2